Terminal Aerodrome Forecast
Issued by NWS Nashville, TN

Home | Current Version | Previous Version | Text Only | Print | Product List | Glossary On
Versions: 1 2 3 4 5 6 7 8 9 10 11 12 13 14 15 16 17 18 19 20
000
FTUS44 KOHX 191126
TAFBNA
TAF
KBNA 191126Z 1912/2012 19005KT P6SM SCT050 OVC080
     FM191500 22008KT P6SM BKN045 BKN150
      TEMPO 1915/1918 4SM -TSRA BR OVC040CB
     FM192300 18002KT P6SM SCT150
     FM200900 18002KT 4SM BR SCT150=

USA.gov is the U.S. government's official web portal to all federal, state and local government web resources and services.